Proctor, Minnesota
Current Conditions -  °F | °C
As of 3:28 PM on Friday 28 Nov 2014 (Local Time) from KDLH Reporting Station
Light Snow Light Snow  
Wind Chill:   Ceiling: 900
Heat Index: 15°   Visibility: 6mi
Dew Point: 10°   Wind: 9mph
Humidity: 80%   Direction: 100°E
Pressure: 29.84"   Gusts: NA
Location:  46.7582°N, 92.2733°W
Report Text: KDLH 282128Z AUTO 10008KT 6SM -SN BKN009 OVC037 M09/M12 A2984 RMK AO2 P0000 T10941122
Loading
Personal Weather Stations






























Interactive Weather Map New forecast layout! Learn more

10-Day Weather Forecast

Advertisements
Track Severe Weather on mobile